sensor_id;sensor_type;location;lat;lon;timestamp;P1;durP1;ratioP1;P2;durP2;ratioP2
81627;SDS011;71036;51.102;6.514;2024-01-16T00:01:43;18.53;;;8.10;;
81627;SDS011;71036;51.102;6.514;2024-01-16T00:04:08;23.47;;;9.00;;
81627;SDS011;71036;51.102;6.514;2024-01-16T00:06:34;21.90;;;8.63;;
81627;SDS011;71036;51.102;6.514;2024-01-16T00:09:03;12.93;;;7.53;;
81627;SDS011;71036;51.102;6.514;2024-01-16T00:11:28;20.50;;;8.17;;
81627;SDS011;71036;51.102;6.514;2024-01-16T00:13:53;16.27;;;7.88;;
81627;SDS011;71036;51.102;6.514;2024-01-16T00:16:18;17.20;;;8.10;;
81627;SDS011;71036;51.102;6.514;2024-01-16T00:18:44;15.20;;;7.63;;
81627;SDS011;71036;51.102;6.514;2024-01-16T00:21:09;16.25;;;8.70;;
81627;SDS011;71036;51.102;6.514;2024-01-16T00:23:34;17.48;;;8.70;;
81627;SDS011;71036;51.102;6.514;2024-01-16T00:26:00;28.63;;;7.47;;
81627;SDS011;71036;51.102;6.514;2024-01-16T00:28:25;16.67;;;8.38;;
81627;SDS011;71036;51.102;6.514;2024-01-16T00:30:50;16.33;;;7.33;;
81627;SDS011;71036;51.102;6.514;2024-01-16T00:33:16;18.10;;;7.60;;
81627;SDS011;71036;51.102;6.514;2024-01-16T00:35:41;20.83;;;9.00;;
81627;SDS011;71036;51.102;6.514;2024-01-16T00:38:06;17.40;;;6.50;;
81627;SDS011;71036;51.102;6.514;2024-01-16T00:40:31;16.40;;;6.37;;
81627;SDS011;71036;51.102;6.514;2024-01-16T00:42:56;14.98;;;6.97;;
81627;SDS011;71036;51.102;6.514;2024-01-16T00:45:22;13.43;;;6.72;;
81627;SDS011;71036;51.102;6.514;2024-01-16T00:47:47;20.37;;;6.90;;
81627;SDS011;71036;51.102;6.514;2024-01-16T00:50:12;15.10;;;7.53;;
81627;SDS011;71036;51.102;6.514;2024-01-16T00:52:37;12.83;;;6.70;;
81627;SDS011;71036;51.102;6.514;2024-01-16T00:55:03;23.10;;;7.47;;
81627;SDS011;71036;51.102;6.514;2024-01-16T00:57:28;17.97;;;6.67;;
81627;SDS011;71036;51.102;6.514;2024-01-16T00:59:53;14.25;;;6.80;;
81627;SDS011;71036;51.102;6.514;2024-01-16T01:02:18;13.70;;;5.67;;
81627;SDS011;71036;51.102;6.514;2024-01-16T01:04:43;16.40;;;6.00;;
81627;SDS011;71036;51.102;6.514;2024-01-16T01:07:09;15.43;;;5.40;;
81627;SDS011;71036;51.102;6.514;2024-01-16T01:09:34;9.00;;;4.80;;
81627;SDS011;71036;51.102;6.514;2024-01-16T01:11:59;10.10;;;5.63;;
81627;SDS011;71036;51.102;6.514;2024-01-16T01:14:24;14.67;;;5.40;;
81627;SDS011;71036;51.102;6.514;2024-01-16T01:16:51;10.57;;;5.77;;
81627;SDS011;71036;51.102;6.514;2024-01-16T01:19:16;13.97;;;5.60;;
81627;SDS011;71036;51.102;6.514;2024-01-16T01:21:41;18.37;;;6.20;;
81627;SDS011;71036;51.102;6.514;2024-01-16T01:24:07;10.87;;;5.87;;
81627;SDS011;71036;51.102;6.514;2024-01-16T01:26:32;20.40;;;8.30;;
81627;SDS011;71036;51.102;6.514;2024-01-16T01:28:57;12.40;;;6.93;;
81627;SDS011;71036;51.102;6.514;2024-01-16T01:31:22;12.25;;;6.63;;
81627;SDS011;71036;51.102;6.514;2024-01-16T01:33:47;17.60;;;7.10;;
81627;SDS011;71036;51.102;6.514;2024-01-16T01:36:13;11.30;;;5.63;;
81627;SDS011;71036;51.102;6.514;2024-01-16T01:38:38;15.88;;;6.88;;
81627;SDS011;71036;51.102;6.514;2024-01-16T01:41:03;12.20;;;6.70;;
81627;SDS011;71036;51.102;6.514;2024-01-16T01:43:28;13.60;;;6.17;;
81627;SDS011;71036;51.102;6.514;2024-01-16T01:48:48;13.50;;;6.10;;
81627;SDS011;71036;51.102;6.514;2024-01-16T01:51:15;18.90;;;6.30;;
81627;SDS011;71036;51.102;6.514;2024-01-16T01:53:42;17.30;;;7.00;;
81627;SDS011;71036;51.102;6.514;2024-01-16T01:56:08;11.83;;;5.07;;
81627;SDS011;71036;51.102;6.514;2024-01-16T01:58:35;17.13;;;7.10;;
81627;SDS011;71036;51.102;6.514;2024-01-16T02:01:01;15.23;;;6.97;;
81627;SDS011;71036;51.102;6.514;2024-01-16T02:03:27;18.77;;;6.10;;
81627;SDS011;71036;51.102;6.514;2024-01-16T02:05:55;12.83;;;5.60;;
81627;SDS011;71036;51.102;6.514;2024-01-16T02:08:20;12.60;;;6.37;;
81627;SDS011;71036;51.102;6.514;2024-01-16T02:10:45;13.80;;;5.67;;
81627;SDS011;71036;51.102;6.514;2024-01-16T02:13:12;15.03;;;6.83;;
81627;SDS011;71036;51.102;6.514;2024-01-16T02:15:37;13.00;;;5.13;;
81627;SDS011;71036;51.102;6.514;2024-01-16T02:18:06;19.13;;;5.63;;
81627;SDS011;71036;51.102;6.514;2024-01-16T02:20:31;11.07;;;5.87;;
81627;SDS011;71036;51.102;6.514;2024-01-16T02:22:56;7.83;;;4.30;;
81627;SDS011;71036;51.102;6.514;2024-01-16T02:25:25;15.87;;;4.93;;
81627;SDS011;71036;51.102;6.514;2024-01-16T02:27:51;14.50;;;6.73;;
81627;SDS011;71036;51.102;6.514;2024-01-16T02:30:16;16.43;;;4.87;;
81627;SDS011;71036;51.102;6.514;2024-01-16T02:32:41;13.53;;;7.63;;
81627;SDS011;71036;51.102;6.514;2024-01-16T02:35:07;11.13;;;5.40;;
81627;SDS011;71036;51.102;6.514;2024-01-16T02:37:34;8.70;;;4.77;;
81627;SDS011;71036;51.102;6.514;2024-01-16T02:39:59;10.63;;;5.68;;
81627;SDS011;71036;51.102;6.514;2024-01-16T02:42:27;20.57;;;5.97;;
81627;SDS011;71036;51.102;6.514;2024-01-16T02:44:54;13.47;;;4.87;;
81627;SDS011;71036;51.102;6.514;2024-01-16T02:47:20;16.38;;;5.47;;
81627;SDS011;71036;51.102;6.514;2024-01-16T02:49:45;15.97;;;4.97;;
81627;SDS011;71036;51.102;6.514;2024-01-16T02:52:10;12.52;;;5.80;;
81627;SDS011;71036;51.102;6.514;2024-01-16T02:54:35;10.32;;;5.20;;
81627;SDS011;71036;51.102;6.514;2024-01-16T02:57:00;9.38;;;5.18;;
81627;SDS011;71036;51.102;6.514;2024-01-16T02:59:25;10.40;;;5.63;;
81627;SDS011;71036;51.102;6.514;2024-01-16T03:01:53;11.77;;;5.53;;
81627;SDS011;71036;51.102;6.514;2024-01-16T03:04:18;8.27;;;4.85;;
81627;SDS011;71036;51.102;6.514;2024-01-16T03:06:43;14.47;;;5.70;;
81627;SDS011;71036;51.102;6.514;2024-01-16T03:09:08;11.50;;;5.63;;
81627;SDS011;71036;51.102;6.514;2024-01-16T03:11:33;25.43;;;6.23;;
81627;SDS011;71036;51.102;6.514;2024-01-16T03:13:58;12.75;;;5.35;;
81627;SDS011;71036;51.102;6.514;2024-01-16T03:16:24;23.13;;;6.07;;
81627;SDS011;71036;51.102;6.514;2024-01-16T03:18:50;8.17;;;5.47;;
81627;SDS011;71036;51.102;6.514;2024-01-16T03:21:15;12.80;;;5.83;;
81627;SDS011;71036;51.102;6.514;2024-01-16T03:23:40;11.30;;;6.37;;
81627;SDS011;71036;51.102;6.514;2024-01-16T03:26:05;10.13;;;5.60;;
81627;SDS011;71036;51.102;6.514;2024-01-16T03:28:31;11.15;;;5.95;;
81627;SDS011;71036;51.102;6.514;2024-01-16T03:30:56;10.70;;;4.70;;
81627;SDS011;71036;51.102;6.514;2024-01-16T03:33:21;12.00;;;4.90;;
81627;SDS011;71036;51.102;6.514;2024-01-16T03:35:46;16.03;;;5.90;;
81627;SDS011;71036;51.102;6.514;2024-01-16T03:38:12;11.97;;;5.30;;
81627;SDS011;71036;51.102;6.514;2024-01-16T03:40:37;8.23;;;5.30;;
81627;SDS011;71036;51.102;6.514;2024-01-16T03:43:02;18.97;;;6.03;;
81627;SDS011;71036;51.102;6.514;2024-01-16T03:45:30;12.07;;;6.47;;
81627;SDS011;71036;51.102;6.514;2024-01-16T03:47:55;10.57;;;5.82;;
81627;SDS011;71036;51.102;6.514;2024-01-16T03:50:20;13.95;;;6.10;;
81627;SDS011;71036;51.102;6.514;2024-01-16T03:52:45;15.20;;;7.03;;
81627;SDS011;71036;51.102;6.514;2024-01-16T03:55:10;10.53;;;6.00;;
81627;SDS011;71036;51.102;6.514;2024-01-16T03:57:35;20.40;;;6.53;;
81627;SDS011;71036;51.102;6.514;2024-01-16T04:00:01;22.37;;;6.20;;
81627;SDS011;71036;51.102;6.514;2024-01-16T04:02:26;11.07;;;6.53;;
81627;SDS011;71036;51.102;6.514;2024-01-16T04:04:51;12.23;;;6.57;;
81627;SDS011;71036;51.102;6.514;2024-01-16T04:07:16;13.70;;;6.65;;
81627;SDS011;71036;51.102;6.514;2024-01-16T04:09:42;14.50;;;6.50;;
81627;SDS011;71036;51.102;6.514;2024-01-16T04:12:07;18.63;;;7.87;;
81627;SDS011;71036;51.102;6.514;2024-01-16T04:14:33;12.03;;;5.80;;
81627;SDS011;71036;51.102;6.514;2024-01-16T04:16:58;17.25;;;7.60;;
81627;SDS011;71036;51.102;6.514;2024-01-16T04:19:23;22.67;;;6.30;;
81627;SDS011;71036;51.102;6.514;2024-01-16T04:21:48;12.57;;;6.50;;
81627;SDS011;71036;51.102;6.514;2024-01-16T04:24:13;8.88;;;5.75;;
81627;SDS011;71036;51.102;6.514;2024-01-16T04:26:38;18.53;;;6.17;;
81627;SDS011;71036;51.102;6.514;2024-01-16T04:29:04;13.68;;;5.80;;
81627;SDS011;71036;51.102;6.514;2024-01-16T04:31:29;17.50;;;5.40;;
81627;SDS011;71036;51.102;6.514;2024-01-16T04:33:55;15.30;;;5.80;;
81627;SDS011;71036;51.102;6.514;2024-01-16T04:36:20;15.30;;;4.93;;
81627;SDS011;71036;51.102;6.514;2024-01-16T04:38:45;12.68;;;5.25;;
81627;SDS011;71036;51.102;6.514;2024-01-16T04:41:10;19.93;;;5.20;;
81627;SDS011;71036;51.102;6.514;2024-01-16T04:43:35;24.10;;;5.40;;
81627;SDS011;71036;51.102;6.514;2024-01-16T04:46:00;8.07;;;3.92;;
81627;SDS011;71036;51.102;6.514;2024-01-16T04:48:25;15.70;;;4.90;;
81627;SDS011;71036;51.102;6.514;2024-01-16T04:50:51;18.00;;;4.00;;
81627;SDS011;71036;51.102;6.514;2024-01-16T04:53:16;6.67;;;3.87;;
81627;SDS011;71036;51.102;6.514;2024-01-16T04:55:41;8.67;;;4.70;;
81627;SDS011;71036;51.102;6.514;2024-01-16T04:58:06;13.60;;;5.90;;
81627;SDS011;71036;51.102;6.514;2024-01-16T05:00:32;6.40;;;4.17;;
81627;SDS011;71036;51.102;6.514;2024-01-16T05:02:57;11.77;;;4.63;;
81627;SDS011;71036;51.102;6.514;2024-01-16T05:05:22;5.60;;;2.80;;
81627;SDS011;71036;51.102;6.514;2024-01-16T05:07:47;7.27;;;3.40;;
81627;SDS011;71036;51.102;6.514;2024-01-16T05:10:13;13.17;;;3.93;;
81627;SDS011;71036;51.102;6.514;2024-01-16T05:12:38;12.30;;;3.60;;
81627;SDS011;71036;51.102;6.514;2024-01-16T05:15:04;7.20;;;3.67;;
81627;SDS011;71036;51.102;6.514;2024-01-16T05:17:29;9.07;;;3.10;;
81627;SDS011;71036;51.102;6.514;2024-01-16T05:19:54;13.90;;;2.55;;
81627;SDS011;71036;51.102;6.514;2024-01-16T05:22:19;6.97;;;2.73;;
81627;SDS011;71036;51.102;6.514;2024-01-16T05:24:45;15.07;;;3.10;;
81627;SDS011;71036;51.102;6.514;2024-01-16T05:27:10;14.23;;;3.43;;
81627;SDS011;71036;51.102;6.514;2024-01-16T05:29:35;8.20;;;3.40;;
81627;SDS011;71036;51.102;6.514;2024-01-16T05:32:04;4.63;;;2.63;;
81627;SDS011;71036;51.102;6.514;2024-01-16T05:34:29;8.10;;;2.23;;
81627;SDS011;71036;51.102;6.514;2024-01-16T05:36:55;2.70;;;1.80;;
81627;SDS011;71036;51.102;6.514;2024-01-16T05:39:20;9.17;;;3.03;;
81627;SDS011;71036;51.102;6.514;2024-01-16T05:41:46;8.40;;;2.10;;
81627;SDS011;71036;51.102;6.514;2024-01-16T05:44:11;13.83;;;2.30;;
81627;SDS011;71036;51.102;6.514;2024-01-16T05:46:36;7.85;;;2.97;;
81627;SDS011;71036;51.102;6.514;2024-01-16T05:49:01;10.95;;;2.45;;
81627;SDS011;71036;51.102;6.514;2024-01-16T05:51:27;4.70;;;2.05;;
81627;SDS011;71036;51.102;6.514;2024-01-16T05:53:52;3.40;;;1.70;;
81627;SDS011;71036;51.102;6.514;2024-01-16T05:56:17;10.13;;;2.28;;
81627;SDS011;71036;51.102;6.514;2024-01-16T05:58:42;2.72;;;2.15;;
81627;SDS011;71036;51.102;6.514;2024-01-16T06:01:08;13.97;;;2.73;;
81627;SDS011;71036;51.102;6.514;2024-01-16T06:03:33;3.63;;;1.87;;
81627;SDS011;71036;51.102;6.514;2024-01-16T06:05:58;5.65;;;2.70;;
81627;SDS011;71036;51.102;6.514;2024-01-16T06:08:23;3.80;;;1.97;;
81627;SDS011;71036;51.102;6.514;2024-01-16T06:10:49;5.77;;;2.40;;
81627;SDS011;71036;51.102;6.514;2024-01-16T06:13:14;4.43;;;1.75;;
81627;SDS011;71036;51.102;6.514;2024-01-16T06:15:39;15.05;;;2.13;;
81627;SDS011;71036;51.102;6.514;2024-01-16T06:18:04;2.97;;;1.90;;
81627;SDS011;71036;51.102;6.514;2024-01-16T06:20:29;5.33;;;2.57;;
81627;SDS011;71036;51.102;6.514;2024-01-16T06:22:55;14.73;;;1.43;;
81627;SDS011;71036;51.102;6.514;2024-01-16T06:25:20;4.93;;;2.00;;
81627;SDS011;71036;51.102;6.514;2024-01-16T06:27:46;8.27;;;2.50;;
81627;SDS011;71036;51.102;6.514;2024-01-16T06:30:11;6.23;;;1.90;;
81627;SDS011;71036;51.102;6.514;2024-01-16T06:32:36;2.47;;;1.60;;
81627;SDS011;71036;51.102;6.514;2024-01-16T06:35:01;3.67;;;1.13;;
81627;SDS011;71036;51.102;6.514;2024-01-16T06:37:26;6.60;;;1.50;;
81627;SDS011;71036;51.102;6.514;2024-01-16T06:39:52;4.40;;;1.93;;
81627;SDS011;71036;51.102;6.514;2024-01-16T06:42:17;6.40;;;2.00;;
81627;SDS011;71036;51.102;6.514;2024-01-16T06:44:42;3.03;;;2.27;;
81627;SDS011;71036;51.102;6.514;2024-01-16T06:47:07;11.80;;;2.63;;
81627;SDS011;71036;51.102;6.514;2024-01-16T06:49:32;21.53;;;2.73;;
81627;SDS011;71036;51.102;6.514;2024-01-16T06:51:58;3.20;;;1.40;;
81627;SDS011;71036;51.102;6.514;2024-01-16T06:54:23;7.07;;;2.37;;
81627;SDS011;71036;51.102;6.514;2024-01-16T06:56:48;5.53;;;2.23;;
81627;SDS011;71036;51.102;6.514;2024-01-16T06:59:14;8.23;;;2.40;;
81627;SDS011;71036;51.102;6.514;2024-01-16T07:01:39;3.57;;;1.50;;
81627;SDS011;71036;51.102;6.514;2024-01-16T07:04:04;2.88;;;1.40;;
81627;SDS011;71036;51.102;6.514;2024-01-16T07:06:30;7.27;;;1.43;;
81627;SDS011;71036;51.102;6.514;2024-01-16T07:08:55;6.20;;;2.33;;
81627;SDS011;71036;51.102;6.514;2024-01-16T07:11:20;11.77;;;1.73;;
81627;SDS011;71036;51.102;6.514;2024-01-16T07:13:46;6.63;;;1.73;;
81627;SDS011;71036;51.102;6.514;2024-01-16T07:16:11;5.63;;;2.03;;
81627;SDS011;71036;51.102;6.514;2024-01-16T07:18:37;5.97;;;1.93;;
81627;SDS011;71036;51.102;6.514;2024-01-16T07:21:02;1.80;;;1.20;;
81627;SDS011;71036;51.102;6.514;2024-01-16T07:23:28;6.60;;;2.10;;
81627;SDS011;71036;51.102;6.514;2024-01-16T07:25:53;3.30;;;1.67;;
81627;SDS011;71036;51.102;6.514;2024-01-16T07:28:18;7.40;;;1.73;;
81627;SDS011;71036;51.102;6.514;2024-01-16T07:30:44;5.43;;;1.53;;
81627;SDS011;71036;51.102;6.514;2024-01-16T07:33:09;3.77;;;1.40;;
81627;SDS011;71036;51.102;6.514;2024-01-16T07:35:34;5.37;;;1.60;;
81627;SDS011;71036;51.102;6.514;2024-01-16T07:37:59;5.83;;;1.87;;
81627;SDS011;71036;51.102;6.514;2024-01-16T07:40:24;9.77;;;1.83;;
81627;SDS011;71036;51.102;6.514;2024-01-16T07:42:50;8.93;;;2.57;;
81627;SDS011;71036;51.102;6.514;2024-01-16T07:45:16;8.48;;;2.33;;
81627;SDS011;71036;51.102;6.514;2024-01-16T07:47:41;3.23;;;1.60;;
81627;SDS011;71036;51.102;6.514;2024-01-16T07:50:06;3.80;;;2.27;;
81627;SDS011;71036;51.102;6.514;2024-01-16T07:52:32;7.60;;;1.90;;
81627;SDS011;71036;51.102;6.514;2024-01-16T07:54:57;3.03;;;2.22;;
81627;SDS011;71036;51.102;6.514;2024-01-16T07:57:22;7.57;;;2.90;;
81627;SDS011;71036;51.102;6.514;2024-01-16T07:59:47;6.50;;;2.28;;
81627;SDS011;71036;51.102;6.514;2024-01-16T08:02:12;13.47;;;3.10;;
81627;SDS011;71036;51.102;6.514;2024-01-16T08:04:37;7.97;;;2.20;;
81627;SDS011;71036;51.102;6.514;2024-01-16T08:07:03;4.53;;;1.57;;
81627;SDS011;71036;51.102;6.514;2024-01-16T08:09:28;9.43;;;2.30;;
81627;SDS011;71036;51.102;6.514;2024-01-16T08:11:53;8.00;;;3.30;;
81627;SDS011;71036;51.102;6.514;2024-01-16T08:14:18;11.40;;;2.80;;
81627;SDS011;71036;51.102;6.514;2024-01-16T08:16:43;9.35;;;2.25;;
81627;SDS011;71036;51.102;6.514;2024-01-16T08:19:09;6.63;;;1.90;;
81627;SDS011;71036;51.102;6.514;2024-01-16T08:21:34;15.67;;;2.47;;
81627;SDS011;71036;51.102;6.514;2024-01-16T08:23:59;11.33;;;2.40;;
81627;SDS011;71036;51.102;6.514;2024-01-16T08:26:24;2.13;;;1.73;;
81627;SDS011;71036;51.102;6.514;2024-01-16T08:28:50;4.70;;;2.10;;
81627;SDS011;71036;51.102;6.514;2024-01-16T08:31:18;6.50;;;2.37;;
81627;SDS011;71036;51.102;6.514;2024-01-16T08:33:43;4.57;;;2.20;;
81627;SDS011;71036;51.102;6.514;2024-01-16T08:36:09;8.73;;;2.80;;
81627;SDS011;71036;51.102;6.514;2024-01-16T08:38:34;6.87;;;2.43;;
81627;SDS011;71036;51.102;6.514;2024-01-16T08:40:59;7.17;;;1.70;;
81627;SDS011;71036;51.102;6.514;2024-01-16T08:43:24;7.33;;;2.30;;
81627;SDS011;71036;51.102;6.514;2024-01-16T08:45:49;11.90;;;2.28;;
81627;SDS011;71036;51.102;6.514;2024-01-16T08:48:15;13.47;;;2.60;;
81627;SDS011;71036;51.102;6.514;2024-01-16T08:50:41;12.07;;;2.93;;
81627;SDS011;71036;51.102;6.514;2024-01-16T08:53:06;6.80;;;2.70;;
81627;SDS011;71036;51.102;6.514;2024-01-16T08:55:32;13.23;;;2.80;;
81627;SDS011;71036;51.102;6.514;2024-01-16T08:57:57;3.47;;;2.53;;
81627;SDS011;71036;51.102;6.514;2024-01-16T09:00:22;9.83;;;2.77;;
81627;SDS011;71036;51.102;6.514;2024-01-16T09:02:47;11.50;;;2.33;;
81627;SDS011;71036;51.102;6.514;2024-01-16T09:05:13;11.40;;;2.40;;
81627;SDS011;71036;51.102;6.514;2024-01-16T09:07:39;7.80;;;2.43;;
81627;SDS011;71036;51.102;6.514;2024-01-16T09:10:04;6.20;;;2.23;;
81627;SDS011;71036;51.102;6.514;2024-01-16T09:12:30;15.90;;;1.90;;
81627;SDS011;71036;51.102;6.514;2024-01-16T09:14:55;5.00;;;2.17;;
81627;SDS011;71036;51.102;6.514;2024-01-16T09:17:20;2.20;;;1.20;;
81627;SDS011;71036;51.102;6.514;2024-01-16T09:19:46;3.23;;;1.40;;
81627;SDS011;71036;51.102;6.514;2024-01-16T09:22:11;8.47;;;2.60;;
81627;SDS011;71036;51.102;6.514;2024-01-16T09:24:36;6.77;;;2.60;;
81627;SDS011;71036;51.102;6.514;2024-01-16T09:27:02;9.13;;;2.27;;
81627;SDS011;71036;51.102;6.514;2024-01-16T09:29:31;6.83;;;2.70;;
81627;SDS011;71036;51.102;6.514;2024-01-16T09:31:56;4.33;;;1.77;;
81627;SDS011;71036;51.102;6.514;2024-01-16T09:34:21;9.60;;;2.37;;
81627;SDS011;71036;51.102;6.514;2024-01-16T09:36:46;15.10;;;2.17;;
81627;SDS011;71036;51.102;6.514;2024-01-16T09:39:12;1.85;;;1.65;;
81627;SDS011;71036;51.102;6.514;2024-01-16T09:41:38;4.73;;;1.93;;
81627;SDS011;71036;51.102;6.514;2024-01-16T09:44:04;6.50;;;1.70;;
81627;SDS011;71036;51.102;6.514;2024-01-16T09:46:30;6.03;;;2.40;;
81627;SDS011;71036;51.102;6.514;2024-01-16T09:48:56;3.93;;;1.30;;
81627;SDS011;71036;51.102;6.514;2024-01-16T09:51:21;4.97;;;1.70;;
81627;SDS011;71036;51.102;6.514;2024-01-16T09:53:46;8.73;;;2.47;;
81627;SDS011;71036;51.102;6.514;2024-01-16T09:56:15;10.43;;;2.33;;
81627;SDS011;71036;51.102;6.514;2024-01-16T09:58:40;8.10;;;2.70;;
81627;SDS011;71036;51.102;6.514;2024-01-16T10:01:06;4.60;;;1.97;;
81627;SDS011;71036;51.102;6.514;2024-01-16T10:03:31;4.00;;;1.60;;
81627;SDS011;71036;51.102;6.514;2024-01-16T10:05:58;17.03;;;2.73;;
81627;SDS011;71036;51.102;6.514;2024-01-16T10:08:25;10.30;;;2.63;;
81627;SDS011;71036;51.102;6.514;2024-01-16T10:10:50;3.70;;;2.20;;
81627;SDS011;71036;51.102;6.514;2024-01-16T10:13:16;16.92;;;2.83;;
81627;SDS011;71036;51.102;6.514;2024-01-16T10:15:41;3.37;;;2.10;;
81627;SDS011;71036;51.102;6.514;2024-01-16T10:18:17;6.17;;;2.20;;
81627;SDS011;71036;51.102;6.514;2024-01-16T10:20:46;4.73;;;2.00;;
81627;SDS011;71036;51.102;6.514;2024-01-16T10:23:11;4.72;;;2.40;;
81627;SDS011;71036;51.102;6.514;2024-01-16T10:25:46;3.97;;;1.53;;
81627;SDS011;71036;51.102;6.514;2024-01-16T10:28:29;8.20;;;2.33;;
81627;SDS011;71036;51.102;6.514;2024-01-16T10:31:01;7.13;;;2.40;;
81627;SDS011;71036;51.102;6.514;2024-01-16T10:33:26;9.80;;;2.60;;
81627;SDS011;71036;51.102;6.514;2024-01-16T10:35:52;11.37;;;2.40;;
81627;SDS011;71036;51.102;6.514;2024-01-16T10:38:32;14.70;;;1.73;;
81627;SDS011;71036;51.102;6.514;2024-01-16T10:41:04;7.97;;;2.87;;
81627;SDS011;71036;51.102;6.514;2024-01-16T10:43:29;8.53;;;2.80;;
81627;SDS011;71036;51.102;6.514;2024-01-16T10:45:56;6.38;;;2.17;;
81627;SDS011;71036;51.102;6.514;2024-01-16T10:48:31;4.00;;;2.20;;
81627;SDS011;71036;51.102;6.514;2024-01-16T10:50:56;10.05;;;2.72;;
81627;SDS011;71036;51.102;6.514;2024-01-16T10:53:21;16.00;;;2.90;;
81627;SDS011;71036;51.102;6.514;2024-01-16T10:55:50;8.87;;;2.17;;
81627;SDS011;71036;51.102;6.514;2024-01-16T10:58:16;4.47;;;3.07;;
81627;SDS011;71036;51.102;6.514;2024-01-16T11:00:44;12.57;;;2.67;;
81627;SDS011;71036;51.102;6.514;2024-01-16T11:03:24;14.40;;;3.67;;
81627;SDS011;71036;51.102;6.514;2024-01-16T11:05:50;3.53;;;1.70;;
81627;SDS011;71036;51.102;6.514;2024-01-16T11:08:16;10.00;;;2.53;;
81627;SDS011;71036;51.102;6.514;2024-01-16T11:10:42;10.07;;;2.90;;
81627;SDS011;71036;51.102;6.514;2024-01-16T11:13:07;11.13;;;2.97;;
81627;SDS011;71036;51.102;6.514;2024-01-16T11:15:34;5.30;;;2.30;;
81627;SDS011;71036;51.102;6.514;2024-01-16T11:17:59;18.13;;;3.50;;
81627;SDS011;71036;51.102;6.514;2024-01-16T11:20:26;11.53;;;2.90;;
81627;SDS011;71036;51.102;6.514;2024-01-16T11:22:52;11.90;;;2.27;;
81627;SDS011;71036;51.102;6.514;2024-01-16T11:25:24;9.43;;;2.47;;
81627;SDS011;71036;51.102;6.514;2024-01-16T11:27:55;16.93;;;2.43;;
81627;SDS011;71036;51.102;6.514;2024-01-16T11:30:32;7.83;;;2.37;;
81627;SDS011;71036;51.102;6.514;2024-01-16T11:32:57;4.07;;;1.97;;
81627;SDS011;71036;51.102;6.514;2024-01-16T11:35:40;11.53;;;2.30;;
81627;SDS011;71036;51.102;6.514;2024-01-16T11:38:11;6.73;;;2.57;;
81627;SDS011;71036;51.102;6.514;2024-01-16T11:40:39;5.27;;;2.60;;
81627;SDS011;71036;51.102;6.514;2024-01-16T11:45:48;4.67;;;2.10;;
81627;SDS011;71036;51.102;6.514;2024-01-16T11:48:14;10.73;;;2.20;;
81627;SDS011;71036;51.102;6.514;2024-01-16T11:50:40;6.27;;;2.50;;
81627;SDS011;71036;51.102;6.514;2024-01-16T11:53:06;6.43;;;2.40;;
81627;SDS011;71036;51.102;6.514;2024-01-16T11:55:31;4.77;;;2.00;;
81627;SDS011;71036;51.102;6.514;2024-01-16T12:00:41;11.40;;;2.77;;
81627;SDS011;71036;51.102;6.514;2024-01-16T12:03:16;9.73;;;2.50;;
81627;SDS011;71036;51.102;6.514;2024-01-16T12:10:14;12.53;;;4.00;;
81627;SDS011;71036;51.102;6.514;2024-01-16T12:12:47;5.40;;;2.60;;
81627;SDS011;71036;51.102;6.514;2024-01-16T12:15:14;8.73;;;2.60;;
81627;SDS011;71036;51.102;6.514;2024-01-16T12:20:22;5.50;;;2.27;;
81627;SDS011;71036;51.102;6.514;2024-01-16T12:22:57;9.30;;;2.70;;
81627;SDS011;71036;51.102;6.514;2024-01-16T12:25:25;3.90;;;2.07;;
81627;SDS011;71036;51.102;6.514;2024-01-16T12:28:01;8.67;;;3.00;;
81627;SDS011;71036;51.102;6.514;2024-01-16T12:30:27;23.63;;;4.83;;
81627;SDS011;71036;51.102;6.514;2024-01-16T12:35:31;9.07;;;2.50;;
81627;SDS011;71036;51.102;6.514;2024-01-16T12:38:01;4.40;;;2.60;;
81627;SDS011;71036;51.102;6.514;2024-01-16T12:40:27;6.57;;;2.70;;
81627;SDS011;71036;51.102;6.514;2024-01-16T12:42:53;9.20;;;3.50;;
81627;SDS011;71036;51.102;6.514;2024-01-16T12:45:19;11.63;;;3.20;;
81627;SDS011;71036;51.102;6.514;2024-01-16T12:47:49;6.33;;;2.70;;
81627;SDS011;71036;51.102;6.514;2024-01-16T12:50:22;8.90;;;3.30;;
81627;SDS011;71036;51.102;6.514;2024-01-16T12:52:49;13.63;;;2.90;;
81627;SDS011;71036;51.102;6.514;2024-01-16T12:55:15;19.17;;;3.00;;
81627;SDS011;71036;51.102;6.514;2024-01-16T12:57:42;4.83;;;2.30;;
81627;SDS011;71036;51.102;6.514;2024-01-16T13:00:20;4.27;;;2.07;;
81627;SDS011;71036;51.102;6.514;2024-01-16T13:02:51;4.67;;;2.43;;
81627;SDS011;71036;51.102;6.514;2024-01-16T13:05:17;11.50;;;3.17;;
81627;SDS011;71036;51.102;6.514;2024-01-16T13:07:43;9.73;;;2.53;;
81627;SDS011;71036;51.102;6.514;2024-01-16T13:10:12;7.10;;;2.57;;
81627;SDS011;71036;51.102;6.514;2024-01-16T13:12:41;8.07;;;2.90;;
81627;SDS011;71036;51.102;6.514;2024-01-16T13:15:06;9.47;;;2.33;;
81627;SDS011;71036;51.102;6.514;2024-01-16T13:17:33;5.77;;;1.80;;
81627;SDS011;71036;51.102;6.514;2024-01-16T13:19:59;10.10;;;2.93;;
81627;SDS011;71036;51.102;6.514;2024-01-16T13:22:24;9.50;;;1.87;;
81627;SDS011;71036;51.102;6.514;2024-01-16T13:24:50;5.50;;;2.17;;
81627;SDS011;71036;51.102;6.514;2024-01-16T13:27:15;7.00;;;2.67;;
81627;SDS011;71036;51.102;6.514;2024-01-16T13:29:40;8.13;;;2.13;;
81627;SDS011;71036;51.102;6.514;2024-01-16T13:32:06;13.53;;;2.63;;
81627;SDS011;71036;51.102;6.514;2024-01-16T13:34:32;5.03;;;2.37;;
81627;SDS011;71036;51.102;6.514;2024-01-16T13:36:58;8.63;;;1.80;;
81627;SDS011;71036;51.102;6.514;2024-01-16T13:39:26;10.97;;;2.47;;
81627;SDS011;71036;51.102;6.514;2024-01-16T13:41:52;8.13;;;2.70;;
81627;SDS011;71036;51.102;6.514;2024-01-16T13:44:17;5.90;;;2.60;;
81627;SDS011;71036;51.102;6.514;2024-01-16T13:46:42;14.50;;;2.87;;
81627;SDS011;71036;51.102;6.514;2024-01-16T13:49:08;5.20;;;3.23;;
81627;SDS011;71036;51.102;6.514;2024-01-16T13:51:33;6.07;;;2.53;;
81627;SDS011;71036;51.102;6.514;2024-01-16T13:53:58;5.07;;;1.90;;
81627;SDS011;71036;51.102;6.514;2024-01-16T13:56:23;6.20;;;2.27;;
81627;SDS011;71036;51.102;6.514;2024-01-16T13:58:49;12.23;;;2.10;;
81627;SDS011;71036;51.102;6.514;2024-01-16T14:01:14;5.87;;;1.93;;
81627;SDS011;71036;51.102;6.514;2024-01-16T14:03:39;4.40;;;1.80;;
81627;SDS011;71036;51.102;6.514;2024-01-16T14:06:05;4.23;;;1.60;;
81627;SDS011;71036;51.102;6.514;2024-01-16T14:08:32;3.70;;;1.70;;
81627;SDS011;71036;51.102;6.514;2024-01-16T14:10:58;6.40;;;1.60;;
81627;SDS011;71036;51.102;6.514;2024-01-16T14:13:23;4.77;;;1.97;;
81627;SDS011;71036;51.102;6.514;2024-01-16T14:15:50;5.17;;;1.83;;
81627;SDS011;71036;51.102;6.514;2024-01-16T14:18:15;7.67;;;1.67;;
81627;SDS011;71036;51.102;6.514;2024-01-16T14:20:41;8.33;;;2.87;;
81627;SDS011;71036;51.102;6.514;2024-01-16T14:23:06;3.90;;;1.77;;
81627;SDS011;71036;51.102;6.514;2024-01-16T14:25:31;3.27;;;1.40;;
81627;SDS011;71036;51.102;6.514;2024-01-16T14:27:58;5.00;;;1.63;;
81627;SDS011;71036;51.102;6.514;2024-01-16T14:30:33;6.10;;;1.80;;
81627;SDS011;71036;51.102;6.514;2024-01-16T14:32:59;7.73;;;3.10;;
81627;SDS011;71036;51.102;6.514;2024-01-16T14:35:26;5.13;;;1.43;;
81627;SDS011;71036;51.102;6.514;2024-01-16T14:37:51;7.73;;;1.70;;
81627;SDS011;71036;51.102;6.514;2024-01-16T14:40:17;3.53;;;1.40;;
81627;SDS011;71036;51.102;6.514;2024-01-16T14:42:48;8.90;;;2.27;;
81627;SDS011;71036;51.102;6.514;2024-01-16T14:45:16;3.40;;;1.93;;
81627;SDS011;71036;51.102;6.514;2024-01-16T14:47:41;5.30;;;1.90;;
81627;SDS011;71036;51.102;6.514;2024-01-16T14:50:07;15.37;;;2.30;;
81627;SDS011;71036;51.102;6.514;2024-01-16T14:52:34;3.70;;;2.00;;